sensor_id;sensor_type;location;lat;lon;timestamp;P1;durP1;ratioP1;P2;durP2;ratioP2
53939;SDS011;39850;43.324;21.916;2023-06-26T00:04:13;11.0;;;10.0;;
53939;SDS011;39850;43.324;21.916;2023-06-26T00:08:50;11.0;;;10.0;;
53939;SDS011;39850;43.324;21.916;2023-06-26T00:13:26;11.0;;;10.0;;
53939;SDS011;39850;43.324;21.916;2023-06-26T00:18:04;11.0;;;10.0;;
53939;SDS011;39850;43.324;21.916;2023-06-26T00:22:40;11.0;;;10.0;;
53939;SDS011;39850;43.324;21.916;2023-06-26T00:27:17;11.0;;;10.0;;
53939;SDS011;39850;43.324;21.916;2023-06-26T01:04:13;11.0;;;11.0;;
53939;SDS011;39850;43.324;21.916;2023-06-26T01:08:53;11.0;;;11.0;;
53939;SDS011;39850;43.324;21.916;2023-06-26T01:13:36;11.0;;;11.0;;
53939;SDS011;39850;43.324;21.916;2023-06-26T01:18:15;11.0;;;11.0;;
53939;SDS011;39850;43.324;21.916;2023-06-26T01:23:29;11.0;;;11.0;;
53939;SDS011;39850;43.324;21.916;2023-06-26T01:28:20;11.0;;;11.0;;
53939;SDS011;39850;43.324;21.916;2023-06-26T01:33:00;11.0;;;10.0;;
53939;SDS011;39850;43.324;21.916;2023-06-26T01:37:38;11.0;;;10.0;;
53939;SDS011;39850;43.324;21.916;2023-06-26T01:42:15;11.0;;;10.0;;
53939;SDS011;39850;43.324;21.916;2023-06-26T01:47:05;11.0;;;10.0;;
53939;SDS011;39850;43.324;21.916;2023-06-26T02:20:02;13.0;;;12.0;;
53939;SDS011;39850;43.324;21.916;2023-06-26T02:24:38;13.0;;;12.0;;
53939;SDS011;39850;43.324;21.916;2023-06-26T02:29:15;13.0;;;12.0;;
53939;SDS011;39850;43.324;21.916;2023-06-26T02:33:52;13.0;;;12.0;;
53939;SDS011;39850;43.324;21.916;2023-06-26T02:38:29;13.0;;;12.0;;
53939;SDS011;39850;43.324;21.916;2023-06-26T02:43:07;13.0;;;12.0;;
53939;SDS011;39850;43.324;21.916;2023-06-26T02:47:44;13.0;;;12.0;;
53939;SDS011;39850;43.324;21.916;2023-06-26T02:52:20;13.0;;;12.0;;
53939;SDS011;39850;43.324;21.916;2023-06-26T02:56:57;13.0;;;12.0;;
53939;SDS011;39850;43.324;21.916;2023-06-26T03:01:34;13.0;;;12.0;;
53939;SDS011;39850;43.324;21.916;2023-06-26T03:06:11;13.0;;;12.0;;
53939;SDS011;39850;43.324;21.916;2023-06-26T03:43:03;14.0;;;13.0;;
53939;SDS011;39850;43.324;21.916;2023-06-26T03:47:39;14.0;;;13.0;;
53939;SDS011;39850;43.324;21.916;2023-06-26T03:52:16;14.0;;;13.0;;
53939;SDS011;39850;43.324;21.916;2023-06-26T03:56:52;14.0;;;13.0;;
53939;SDS011;39850;43.324;21.916;2023-06-26T04:01:29;14.0;;;13.0;;
53939;SDS011;39850;43.324;21.916;2023-06-26T04:06:06;14.0;;;13.0;;
53939;SDS011;39850;43.324;21.916;2023-06-26T04:10:43;14.0;;;13.0;;
53939;SDS011;39850;43.324;21.916;2023-06-26T04:15:19;14.0;;;13.0;;
53939;SDS011;39850;43.324;21.916;2023-06-26T04:19:56;14.0;;;13.0;;
53939;SDS011;39850;43.324;21.916;2023-06-26T04:24:32;14.0;;;13.0;;
53939;SDS011;39850;43.324;21.916;2023-06-26T04:29:10;14.0;;;13.0;;
53939;SDS011;39850;43.324;21.916;2023-06-26T05:01:25;20.0;;;21.0;;
53939;SDS011;39850;43.324;21.916;2023-06-26T05:06:01;20.0;;;21.0;;
53939;SDS011;39850;43.324;21.916;2023-06-26T05:10:37;20.0;;;21.0;;
53939;SDS011;39850;43.324;21.916;2023-06-26T05:15:14;20.0;;;21.0;;
53939;SDS011;39850;43.324;21.916;2023-06-26T05:19:51;20.0;;;21.0;;
53939;SDS011;39850;43.324;21.916;2023-06-26T05:24:31;20.0;;;21.0;;
53939;SDS011;39850;43.324;21.916;2023-06-26T05:29:11;20.0;;;21.0;;
53939;SDS011;39850;43.324;21.916;2023-06-26T05:33:55;20.0;;;21.0;;
53939;SDS011;39850;43.324;21.916;2023-06-26T05:38:41;20.0;;;21.0;;
53939;SDS011;39850;43.324;21.916;2023-06-26T05:43:21;20.0;;;21.0;;
53939;SDS011;39850;43.324;21.916;2023-06-26T05:48:00;20.0;;;21.0;;
53939;SDS011;39850;43.324;21.916;2023-06-26T06:24:57;17.0;;;18.0;;
53939;SDS011;39850;43.324;21.916;2023-06-26T06:29:33;17.0;;;18.0;;
53939;SDS011;39850;43.324;21.916;2023-06-26T06:34:10;18.0;;;18.0;;
53939;SDS011;39850;43.324;21.916;2023-06-26T06:38:47;18.0;;;18.0;;
53939;SDS011;39850;43.324;21.916;2023-06-26T06:43:23;18.0;;;19.0;;
53939;SDS011;39850;43.324;21.916;2023-06-26T06:47:59;18.0;;;19.0;;
53939;SDS011;39850;43.324;21.916;2023-06-26T06:52:40;18.0;;;19.0;;
53939;SDS011;39850;43.324;21.916;2023-06-26T06:57:17;18.0;;;19.0;;
53939;SDS011;39850;43.324;21.916;2023-06-26T07:01:53;18.0;;;19.0;;
53939;SDS011;39850;43.324;21.916;2023-06-26T07:06:30;18.0;;;19.0;;
53939;SDS011;39850;43.324;21.916;2023-06-26T07:43:20;13.0;;;12.0;;
53939;SDS011;39850;43.324;21.916;2023-06-26T07:47:57;13.0;;;12.0;;
53939;SDS011;39850;43.324;21.916;2023-06-26T07:52:34;13.0;;;12.0;;
53939;SDS011;39850;43.324;21.916;2023-06-26T07:57:12;13.0;;;12.0;;
53939;SDS011;39850;43.324;21.916;2023-06-26T08:01:53;13.0;;;12.0;;
53939;SDS011;39850;43.324;21.916;2023-06-26T08:06:33;13.0;;;12.0;;
53939;SDS011;39850;43.324;21.916;2023-06-26T08:11:10;13.0;;;12.0;;
53939;SDS011;39850;43.324;21.916;2023-06-26T08:15:47;13.0;;;12.0;;
53939;SDS011;39850;43.324;21.916;2023-06-26T08:20:24;13.0;;;12.0;;
53939;SDS011;39850;43.324;21.916;2023-06-26T09:02:29;26.0;;;14.0;;
53939;SDS011;39850;43.324;21.916;2023-06-26T09:07:08;26.0;;;14.0;;
53939;SDS011;39850;43.324;21.916;2023-06-26T09:11:44;20.0;;;14.0;;
53939;SDS011;39850;43.324;21.916;2023-06-26T09:16:26;20.0;;;14.0;;
53939;SDS011;39850;43.324;21.916;2023-06-26T09:21:10;20.0;;;14.0;;
53939;SDS011;39850;43.324;21.916;2023-06-26T09:25:47;20.0;;;14.0;;
53939;SDS011;39850;43.324;21.916;2023-06-26T09:30:26;20.0;;;14.0;;
53939;SDS011;39850;43.324;21.916;2023-06-26T09:35:05;13.0;;;13.0;;
53939;SDS011;39850;43.324;21.916;2023-06-26T09:39:43;13.0;;;13.0;;
53939;SDS011;39850;43.324;21.916;2023-06-26T10:22:01;11.0;;;10.0;;
53939;SDS011;39850;43.324;21.916;2023-06-26T10:26:51;11.0;;;10.0;;
53939;SDS011;39850;43.324;21.916;2023-06-26T10:31:44;12.0;;;10.0;;
53939;SDS011;39850;43.324;21.916;2023-06-26T10:36:32;12.0;;;10.0;;
53939;SDS011;39850;43.324;21.916;2023-06-26T10:41:13;12.0;;;10.0;;
53939;SDS011;39850;43.324;21.916;2023-06-26T10:45:55;11.0;;;10.0;;
53939;SDS011;39850;43.324;21.916;2023-06-26T10:50:35;11.0;;;10.0;;
53939;SDS011;39850;43.324;21.916;2023-06-26T10:55:16;12.0;;;10.0;;
53939;SDS011;39850;43.324;21.916;2023-06-26T11:00:15;12.0;;;10.0;;
53939;SDS011;39850;43.324;21.916;2023-06-26T11:05:00;11.0;;;9.0;;
53939;SDS011;39850;43.324;21.916;2023-06-26T11:10:00;11.0;;;9.0;;
53939;SDS011;39850;43.324;21.916;2023-06-26T11:42:27;10.0;;;9.0;;
53939;SDS011;39850;43.324;21.916;2023-06-26T11:47:06;10.0;;;9.0;;
53939;SDS011;39850;43.324;21.916;2023-06-26T11:51:43;10.0;;;9.0;;
53939;SDS011;39850;43.324;21.916;2023-06-26T11:56:21;12.0;;;10.0;;
53939;SDS011;39850;43.324;21.916;2023-06-26T12:00:58;12.0;;;10.0;;
53939;SDS011;39850;43.324;21.916;2023-06-26T12:05:35;10.0;;;9.0;;
53939;SDS011;39850;43.324;21.916;2023-06-26T12:10:17;10.0;;;9.0;;
53939;SDS011;39850;43.324;21.916;2023-06-26T12:14:57;11.0;;;10.0;;
53939;SDS011;39850;43.324;21.916;2023-06-26T12:19:39;11.0;;;10.0;;
53939;SDS011;39850;43.324;21.916;2023-06-26T12:24:24;9.0;;;8.0;;
53939;SDS011;39850;43.324;21.916;2023-06-26T12:29:08;9.0;;;8.0;;
53939;SDS011;39850;43.324;21.916;2023-06-26T13:06:07;12.0;;;11.0;;
53939;SDS011;39850;43.324;21.916;2023-06-26T13:10:43;12.0;;;11.0;;
53939;SDS011;39850;43.324;21.916;2023-06-26T13:15:20;10.0;;;10.0;;
53939;SDS011;39850;43.324;21.916;2023-06-26T13:19:57;10.0;;;10.0;;
53939;SDS011;39850;43.324;21.916;2023-06-26T13:24:34;10.0;;;8.0;;
53939;SDS011;39850;43.324;21.916;2023-06-26T13:29:11;10.0;;;8.0;;
53939;SDS011;39850;43.324;21.916;2023-06-26T13:33:48;10.0;;;8.0;;
53939;SDS011;39850;43.324;21.916;2023-06-26T13:38:26;10.0;;;8.0;;
53939;SDS011;39850;43.324;21.916;2023-06-26T13:43:02;10.0;;;8.0;;
53939;SDS011;39850;43.324;21.916;2023-06-26T13:47:39;10.0;;;8.0;;
53939;SDS011;39850;43.324;21.916;2023-06-26T14:24:32;13.0;;;13.0;;
53939;SDS011;39850;43.324;21.916;2023-06-26T14:29:09;13.0;;;13.0;;
53939;SDS011;39850;43.324;21.916;2023-06-26T14:33:45;12.0;;;12.0;;
53939;SDS011;39850;43.324;21.916;2023-06-26T14:38:22;12.0;;;12.0;;
53939;SDS011;39850;43.324;21.916;2023-06-26T14:42:59;12.0;;;10.0;;
53939;SDS011;39850;43.324;21.916;2023-06-26T14:47:35;12.0;;;10.0;;
53939;SDS011;39850;43.324;21.916;2023-06-26T14:52:12;12.0;;;10.0;;
53939;SDS011;39850;43.324;21.916;2023-06-26T14:56:49;12.0;;;10.0;;
53939;SDS011;39850;43.324;21.916;2023-06-26T15:01:26;12.0;;;10.0;;
53939;SDS011;39850;43.324;21.916;2023-06-26T15:06:03;11.0;;;10.0;;
53939;SDS011;39850;43.324;21.916;2023-06-26T15:10:39;11.0;;;10.0;;
53939;SDS011;39850;43.324;21.916;2023-06-26T15:42:54;10.0;;;10.0;;
53939;SDS011;39850;43.324;21.916;2023-06-26T15:47:30;10.0;;;10.0;;
53939;SDS011;39850;43.324;21.916;2023-06-26T15:52:08;10.0;;;10.0;;
53939;SDS011;39850;43.324;21.916;2023-06-26T15:56:44;10.0;;;10.0;;
53939;SDS011;39850;43.324;21.916;2023-06-26T16:01:22;10.0;;;10.0;;
53939;SDS011;39850;43.324;21.916;2023-06-26T16:05:58;10.0;;;9.0;;
53939;SDS011;39850;43.324;21.916;2023-06-26T16:10:35;10.0;;;9.0;;
53939;SDS011;39850;43.324;21.916;2023-06-26T16:15:11;10.0;;;9.0;;
53939;SDS011;39850;43.324;21.916;2023-06-26T16:19:48;10.0;;;9.0;;
53939;SDS011;39850;43.324;21.916;2023-06-26T16:24:25;10.0;;;9.0;;
53939;SDS011;39850;43.324;21.916;2023-06-26T16:29:02;10.0;;;9.0;;
53939;SDS011;39850;43.324;21.916;2023-06-26T17:05:58;10.0;;;9.0;;
53939;SDS011;39850;43.324;21.916;2023-06-26T17:10:35;10.0;;;9.0;;
53939;SDS011;39850;43.324;21.916;2023-06-26T17:15:12;10.0;;;9.0;;
53939;SDS011;39850;43.324;21.916;2023-06-26T17:19:50;10.0;;;9.0;;
53939;SDS011;39850;43.324;21.916;2023-06-26T17:24:26;11.0;;;9.0;;
53939;SDS011;39850;43.324;21.916;2023-06-26T17:29:03;11.0;;;9.0;;
53939;SDS011;39850;43.324;21.916;2023-06-26T17:33:40;11.0;;;10.0;;
53939;SDS011;39850;43.324;21.916;2023-06-26T17:38:16;11.0;;;10.0;;
53939;SDS011;39850;43.324;21.916;2023-06-26T17:42:53;11.0;;;11.0;;
53939;SDS011;39850;43.324;21.916;2023-06-26T17:47:29;11.0;;;11.0;;
53939;SDS011;39850;43.324;21.916;2023-06-26T17:52:08;11.0;;;11.0;;
53939;SDS011;39850;43.324;21.916;2023-06-26T18:24:23;12.0;;;10.0;;
53939;SDS011;39850;43.324;21.916;2023-06-26T18:29:00;12.0;;;10.0;;
53939;SDS011;39850;43.324;21.916;2023-06-26T18:33:37;12.0;;;10.0;;
53939;SDS011;39850;43.324;21.916;2023-06-26T18:38:14;12.0;;;10.0;;
53939;SDS011;39850;43.324;21.916;2023-06-26T18:42:50;12.0;;;10.0;;
53939;SDS011;39850;43.324;21.916;2023-06-26T18:47:27;11.0;;;10.0;;
53939;SDS011;39850;43.324;21.916;2023-06-26T18:52:05;11.0;;;10.0;;
53939;SDS011;39850;43.324;21.916;2023-06-26T18:56:43;11.0;;;10.0;;
53939;SDS011;39850;43.324;21.916;2023-06-26T19:01:20;11.0;;;10.0;;
53939;SDS011;39850;43.324;21.916;2023-06-26T19:05:57;11.0;;;10.0;;
53939;SDS011;39850;43.324;21.916;2023-06-26T19:10:34;11.0;;;10.0;;
53939;SDS011;39850;43.324;21.916;2023-06-26T19:47:27;14.0;;;12.0;;
53939;SDS011;39850;43.324;21.916;2023-06-26T19:52:07;14.0;;;12.0;;
53939;SDS011;39850;43.324;21.916;2023-06-26T19:56:44;14.0;;;12.0;;
53939;SDS011;39850;43.324;21.916;2023-06-26T20:01:20;14.0;;;12.0;;
53939;SDS011;39850;43.324;21.916;2023-06-26T20:05:59;14.0;;;12.0;;
53939;SDS011;39850;43.324;21.916;2023-06-26T20:10:36;14.0;;;12.0;;
53939;SDS011;39850;43.324;21.916;2023-06-26T20:15:13;14.0;;;12.0;;
53939;SDS011;39850;43.324;21.916;2023-06-26T20:19:49;14.0;;;12.0;;
53939;SDS011;39850;43.324;21.916;2023-06-26T20:24:26;14.0;;;12.0;;
53939;SDS011;39850;43.324;21.916;2023-06-26T20:29:03;14.0;;;12.0;;
53939;SDS011;39850;43.324;21.916;2023-06-26T21:06:06;13.0;;;13.0;;
53939;SDS011;39850;43.324;21.916;2023-06-26T21:10:43;13.0;;;13.0;;
53939;SDS011;39850;43.324;21.916;2023-06-26T21:15:20;14.0;;;13.0;;
53939;SDS011;39850;43.324;21.916;2023-06-26T21:19:56;14.0;;;13.0;;
53939;SDS011;39850;43.324;21.916;2023-06-26T21:24:33;14.0;;;13.0;;
53939;SDS011;39850;43.324;21.916;2023-06-26T21:29:10;14.0;;;13.0;;
53939;SDS011;39850;43.324;21.916;2023-06-26T21:33:46;18.0;;;17.0;;
53939;SDS011;39850;43.324;21.916;2023-06-26T21:38:24;18.0;;;17.0;;
53939;SDS011;39850;43.324;21.916;2023-06-26T21:43:02;18.0;;;17.0;;
53939;SDS011;39850;43.324;21.916;2023-06-26T21:47:38;21.0;;;21.0;;
53939;SDS011;39850;43.324;21.916;2023-06-26T21:52:15;21.0;;;21.0;;
53939;SDS011;39850;43.324;21.916;2023-06-26T22:24:33;14.0;;;13.0;;
53939;SDS011;39850;43.324;21.916;2023-06-26T22:29:10;14.0;;;13.0;;
53939;SDS011;39850;43.324;21.916;2023-06-26T22:33:46;14.0;;;13.0;;
53939;SDS011;39850;43.324;21.916;2023-06-26T22:38:23;17.0;;;17.0;;
53939;SDS011;39850;43.324;21.916;2023-06-26T22:43:00;17.0;;;17.0;;
53939;SDS011;39850;43.324;21.916;2023-06-26T22:47:43;20.0;;;21.0;;
53939;SDS011;39850;43.324;21.916;2023-06-26T22:52:22;20.0;;;21.0;;
53939;SDS011;39850;43.324;21.916;2023-06-26T22:56:59;22.0;;;22.0;;
53939;SDS011;39850;43.324;21.916;2023-06-26T23:01:35;22.0;;;22.0;;
53939;SDS011;39850;43.324;21.916;2023-06-26T23:06:12;23.0;;;23.0;;
53939;SDS011;39850;43.324;21.916;2023-06-26T23:10:48;23.0;;;23.0;;
53939;SDS011;39850;43.324;21.916;2023-06-26T23:47:41;12.0;;;11.0;;
53939;SDS011;39850;43.324;21.916;2023-06-26T23:52:17;12.0;;;11.0;;
53939;SDS011;39850;43.324;21.916;2023-06-26T23:56:54;12.0;;;11.0;;
